ADDS METAR Data INFO
IDs: Format: Raw Decoded Include TAF

Data at: 0509 UTC 23 May 2017

K0F2 230455Z AUTO 04003G22KT 5SM -TSRA 16/16 A2991 RMK AO2 LTG DSNT NE THRU SW P0021 T01630163
K0F2 230430Z AUTO 31022G31KT 10SM -TSRA SCT013 SCT034 BKN060 20/17 A2995 RMK AO2 LTG DSNT ALQS T01950165
K0F2 230415Z AUTO 13005KT 10SM SCT060 BKN110 19/17 A2990 RMK AO2 LTG DSNT NW THRU NE T01920166
K0F2 230355Z AUTO 00000KT 10SM SCT050 SCT085 SCT120 19/17 A2992 RMK AO2 LTG DSNT NW THRU E T01930165
K0F2 230335Z AUTO 00000KT 10SM SCT050 BKN075 20/17 A2992 RMK AO2 LTG DSNT NE AND NW T01950169
K0F2 230315Z AUTO 00000KT 10SM SCT050 OVC075 20/17 A2993 RMK AO2 LTG DSNT NE AND NW T02020170
K0F2 230255Z AUTO 00000KT 10SM BKN075 OVC085 20/17 A2993 RMK AO2 LTG DSNT NE T01970167
K0F2 230235Z AUTO 00000KT 10SM SCT085 20/17 A2992 RMK AO2 LTG DSNT N AND NW T01950167
K0F2 230215Z AUTO 00000KT 10SM SCT085 20/17 A2991 RMK AO2 LTG DSNT N AND NW T01990170
K0F2 230155Z AUTO 00000KT 10SM SCT085 21/17 A2992 RMK AO2 T02050170
K0F2 230135Z AUTO 00000KT 10SM SCT075 21/17 A2992 RMK AO2 LTG DSNT N T02140170
K0F2 230115Z AUTO 00000KT 10SM SCT050 BKN065 22/17 A2991 RMK AO2 T02200168
K0F2 230055Z AUTO 08003KT 10SM OVC065 23/17 A2990 RMK AO2 T02250166
K0F2 230035Z AUTO 00000KT 10SM SCT050 OVC065 23/17 A2991 RMK AO2 LTG DSNT N T02270165
K0F2 230015Z AUTO 00000KT 10SM OVC050 23/17 A2991 RMK AO2 T02290165
K0F2 222355Z AUTO 00000KT 10SM BKN048 BKN065 23/16 A2993 RMK AO2 LTG DSNT N T02320161 10252 20220
K0F2 222335Z AUTO 00000KT 10SM SCT065 24/16 A2993 RMK AO2 T02360158
K0F2 222315Z AUTO 00000KT 10SM SCT034 24/16 A2993 RMK AO2 T02400159
K0F2 222255Z AUTO 00000KT 10SM SCT034 25/16 A2994 RMK AO2 T02490158
K0F2 222235Z AUTO 12004KT 10SM SCT032 SCT039 25/16 A2994 RMK AO2 T02510160
K0F2 222215Z AUTO 13003KT 10SM SCT034 BKN039 BKN046 25/16 A2995 RMK AO2 LTG DSNT N T02510157
K0F2 222155Z AUTO 10005KT 10SM BKN032 BKN050 BKN080 25/16 A2996 RMK AO2 T02480159
K0F2 222130Z AUTO 12003KT 10SM OVC048 24/16 A2997 RMK AO2 T02420157
K0F2 222115Z AUTO 10005KT 10SM OVC044 24/16 A2998 RMK AO2 T02410160
K0F2 222055Z AUTO 07003KT 10SM OVC042 24/16 A2999 RMK AO2 T02350159
K0F2 222035Z AUTO 10003KT 10SM OVC038 23/15 A3000 RMK AO2 T02300153
K0F2 222015Z AUTO 06003KT 10SM OVC038 23/16 A3000 RMK AO2 T02280157
K0F2 221955Z AUTO 00000KT 10SM SCT029 OVC036 23/16 A3001 RMK AO2 T02250155
K0F2 221935Z AUTO 00000KT 10SM OVC029 22/15 A3001 RMK AO2 T02210154
K0F2 221915Z AUTO 00000KT 10SM OVC029 22/15 A3002 RMK AO2 T02220153
K0F2 221855Z AUTO 14004KT 10SM OVC029 23/15 A3002 RMK AO2 T02250154
K0F2 221835Z AUTO 07006KT OVC029 23/16 A3002 RMK AO2 T02330156
K0F2 221815Z AUTO 08005KT 10SM OVC029 22/15 A3004 RMK AO2 T02210154
K0F2 221755Z AUTO 08004KT 10SM OVC029 22/15 A3005 RMK AO2 T02230153 10227 20134
K0F2 221735Z AUTO 00000KT 10SM OVC027 22/15 A3005 RMK AO2 T02190150
K0F2 221715Z AUTO 00000KT 10SM OVC025 21/15 A3007 RMK AO2 T02130150
K0F2 221655Z AUTO 00000KT 10SM OVC027 21/15 A3008 RMK AO2 T02110149
K0F2 221635Z AUTO 00000KT 10SM BKN023 BKN050 BKN090 21/15 A3009 RMK AO2 T02080149
K0F2 221615Z AUTO 00000KT 10SM SCT021 BKN090 BKN120 21/15 A3010 RMK AO2 T02090152
K0F2 221555Z AUTO 00000KT 10SM OVC021 20/15 A3011 RMK AO2 T02040150
K0F2 221530Z AUTO 00000KT 10SM OVC019 20/15 A3012 RMK AO2 T01970147
K0F2 221515Z AUTO 18004KT 10SM OVC019 20/15 A3012 RMK AO2 T01960149
K0F2 221455Z AUTO 16006KT 10SM BKN019 OVC090 20/15 A3012 RMK AO2 T01960147
K0F2 221435Z AUTO 17004KT 10SM SCT019 SCT046 20/15 A3011 RMK AO2 T01990149
K0F2 221415Z AUTO 13004KT 10SM BKN046 19/15 A3011 RMK AO2 T01910148
K0F2 221355Z AUTO 16005KT 10SM SCT044 19/15 A3011 RMK AO2 T01900148
K0F2 221335Z AUTO 15004KT 10SM CLR 18/15 A3009 RMK AO2 T01820149
K0F2 221315Z AUTO 15005KT 10SM CLR 18/15 A3009 RMK AO2 T01750147
K0F2 221255Z AUTO 16003KT 10SM CLR 17/15 A3009 RMK AO2 T01660146
K0F2 221235Z AUTO 15003KT 10SM CLR 16/14 A3009 RMK AO2 T01590140
K0F2 221215Z AUTO 00000KT 10SM CLR 14/14 A3009 RMK AO2 T01440137
K0F2 221155Z AUTO 00000KT 10SM CLR 13/13 A3008 RMK AO2 T01330131 10177 20130
K0F2 221135Z AUTO 00000KT 10SM CLR 13/13 A3008 RMK AO2 T01330132
K0F2 221115Z AUTO 00000KT 10SM CLR 14/13 A3009 RMK AO2 T01350131
K0F2 221055Z AUTO 00000KT 10SM SCT060 14/13 A3009 RMK AO2 T01400132
K0F2 221035Z AUTO 00000KT 10SM BKN060 14/13 A3009 RMK AO2 T01400131
K0F2 221010Z AUTO 00000KT 10SM BKN060 14/13 A3010 RMK AO2 T01350125
K0F2 220950Z AUTO 00000KT 10SM SCT040 13/12 A3010 RMK AO2 T01320119
K0F2 220935Z AUTO 00000KT 10SM SCT040 SCT075 14/12 A3011 RMK AO2 T01400121
K0F2 220915Z AUTO 00000KT 10SM SCT045 SCT075 SCT095 15/12 A3012 RMK AO2 T01460120
K0F2 220855Z AUTO 00000KT 10SM SCT045 SCT095 15/12 A3011 RMK AO2 T01510116
K0F2 220835Z AUTO 00000KT 10SM SCT075 SCT085 15/12 A3011 RMK AO2 T01500115
K0F2 220815Z AUTO 17003KT 10SM SCT075 BKN085 15/12 A3012 RMK AO2 T01520115
K0F2 220755Z AUTO 00000KT 10SM BKN085 16/11 A3012 RMK AO2 T01590114
K0F2 220735Z AUTO 00000KT 10SM CLR 16/11 A3013 RMK AO2 T01610111
K0F2 220715Z AUTO 00000KT 10SM CLR 17/11 A3013 RMK AO2 T01650113
K0F2 220655Z AUTO 00000KT 10SM CLR 17/11 A3013 RMK AO2 T01690111
K0F2 220635Z AUTO 09003KT 10SM CLR 18/11 A3012 RMK AO2 T01750109
K0F2 220615Z AUTO 08004KT 10SM SCT120 18/11 A3012 RMK AO2 T01760113
K0F2 220555Z AUTO 08003KT 10SM SCT120 18/12 A3012 RMK AO2 T01750115 10227 20171 402700105
K0F2 220535Z AUTO 00000KT 10SM CLR 17/13 A3014 RMK AO2 T01720125
K0F2 220515Z AUTO 00000KT 10SM CLR 17/12 A3014 RMK AO2 T01740116
K0F2 220455Z AUTO 00000KT 10SM CLR 17/12 A3014 RMK AO2 T01730121
K0F2 220435Z AUTO 00000KT 10SM CLR 18/12 A3014 RMK AO2 T01750121
K0F2 220415Z AUTO 00000KT 10SM CLR 18/13 A3013 RMK AO2 T01750125
K0F2 220355Z AUTO 00000KT 10SM CLR 18/12 A3014 RMK AO2 T01800121
K0F2 220335Z AUTO 00000KT 10SM CLR 18/12 A3014 RMK AO2 T01800124
K0F2 220315Z AUTO 00000KT 10SM CLR 18/12 A3014 RMK AO2 T01790123
K0F2 220255Z AUTO 00000KT 10SM CLR 18/13 A3013 RMK AO2 T01810128
K0F2 220235Z AUTO 00000KT 10SM CLR 18/13 A3012 RMK AO2 T01830127
K0F2 220215Z AUTO 00000KT 10SM CLR 19/12 A3012 RMK AO2 T01870120
K0F2 220155Z AUTO 00000KT 10SM CLR 19/13 A3012 RMK AO2 T01900129
K0F2 220135Z AUTO 00000KT 10SM CLR 20/13 A3011 RMK AO2 T01950125
K0F2 220115Z AUTO 00000KT 10SM CLR 20/13 A3009 RMK AO2 T01980126
K0F2 220055Z AUTO 08003KT 10SM CLR 21/12 A3010 RMK AO2 T02070121
K0F2 220035Z AUTO 07003KT 10SM CLR 21/13 A3009 RMK AO2 T02130125
K0F2 220015Z AUTO 00000KT 10SM CLR 22/12 A3011 RMK AO2 T02210124
K0F2 212355Z AUTO 08003KT 10SM CLR 23/12 A3011 RMK AO2 T02280120 10270 20228
K0F2 212335Z AUTO 08004KT 10SM CLR 23/12 A3011 RMK AO2 T02340116
K0F2 212315Z AUTO 07004KT 10SM CLR 24/11 A3011 RMK AO2 T02390113
K0F2 212255Z AUTO 05003KT 10SM CLR 24/11 A3011 RMK AO2 T02420109
K0F2 212235Z AUTO 06003KT 10SM CLR 25/11 A3011 RMK AO2 T02470105
K0F2 212215Z AUTO 07004KT 10SM CLR 25/10 A3011 RMK AO2 T02510098 PWINO
K0F2 212155Z AUTO 09004KT CLR 25/10 A3012 RMK AO2 T02530097 PWINO
K0F2 212135Z AUTO 08008KT 040V110 CLR 26/11 A3011 RMK AO2 T02600109
K0F2 212115Z AUTO 07005KT 10SM CLR 26/10 A3012 RMK AO2 T02600099
K0F2 212055Z AUTO 06003KT 10SM CLR 26/10 A3013 RMK AO2 T02610096
K0F2 212035Z AUTO 08004KT 10SM CLR 26/10 A3013 RMK AO2 T02630098
K0F2 212015Z AUTO 09003KT CLR 26/11 A3013 RMK AO2 T02640105 PWINO
K0F2 211955Z AUTO 08006KT 10SM CLR 27/11 A3012 RMK AO2 T02660110
K0F2 211935Z AUTO 04005KT 10SM CLR 26/11 A3013 RMK AO2 T02610110
K0F2 211915Z AUTO 06003KT 10SM CLR 25/10 A3015 RMK AO2 T02540095
K0F2 211855Z AUTO 00000KT 10SM CLR 26/10 A3016 RMK AO2 T02570096
K0F2 211835Z AUTO 00000KT 10SM CLR 25/10 A3016 RMK AO2 T02490097
K0F2 211815Z AUTO 12003KT 10SM CLR 24/09 A3017 RMK AO2 T02440094
K0F2 211755Z AUTO 14004KT 10SM CLR 24/10 A3017 RMK AO2 T02400096 10245 20136
K0F2 211735Z AUTO 00000KT 10SM CLR 24/10 A3018 RMK AO2 T02380100
K0F2 211715Z AUTO 12005KT 10SM CLR 23/09 A3019 RMK AO2 T02310094


Page loaded:  05:09 UTC  |   10:09 PM Pacific  |   11:09 PM Mountain  |   12:09 AM Central  |   01:09 AM Eastern

 

ADVISORIES

FORECASTS

FORECASTS

OBSERVATIONS

USER TOOLS

ABOUT US